Time,TemperatureF,DewpointF,PressureIn,WindDirection,WindDirectionDegrees,WindSpeedMPH,WindSpeedGustMPH,Humidity,HourlyPrecipIn,Conditions,Clouds,dailyrainin,SoftwareType,DateUTC
2013-09-16 00:14:00,65.0,63.0,30.25,NE,38,0.0,0.0,93,0.00,,,0.00,,2013-09-16 04:14:00,
2013-09-16 00:24:00,65.0,63.0,30.24,NE,38,0.0,0.0,93,0.00,,,0.00,,2013-09-16 04:24:00,
2013-09-16 00:54:00,64.0,62.0,30.24,NE,38,0.0,0.0,93,0.00,,,0.00,,2013-09-16 04:54:00,
2013-09-16 01:13:00,64.0,62.0,30.24,NE,38,0.0,0.0,93,0.00,,,0.00,,2013-09-16 05:13:00,
2013-09-16 01:22:00,63.0,61.0,30.24,NE,38,0.0,0.0,93,0.00,,,0.00,,2013-09-16 05:22:00,
2013-09-16 01:53:00,63.0,61.0,30.24,NE,38,0.0,0.0,94,0.00,,,0.00,,2013-09-16 05:53:00,
2013-09-16 02:12:00,63.0,61.0,30.24,NE,38,0.0,0.0,94,0.00,,,0.00,,2013-09-16 06:12:00,
2013-09-16 02:22:00,63.0,61.0,30.24,NE,38,0.0,0.0,94,0.00,,,0.00,,2013-09-16 06:22:00,
2013-09-16 02:52:00,62.0,60.0,30.24,NE,38,0.0,0.0,94,0.00,,,0.00,,2013-09-16 06:52:00,
2013-09-16 03:12:00,62.0,60.0,30.23,NE,38,0.0,0.0,94,0.00,,,0.00,,2013-09-16 07:12:00,
2013-09-16 03:22:00,62.0,60.0,30.23,NE,38,0.0,0.0,94,0.00,,,0.00,,2013-09-16 07:22:00,
2013-09-16 03:52:00,62.0,60.0,30.23,NE,38,0.0,0.0,94,0.00,,,0.00,,2013-09-16 07:52:00,
2013-09-16 04:22:00,62.0,60.0,30.23,NE,38,0.0,0.0,94,0.00,,,0.00,,2013-09-16 08:22:00,
2013-09-16 04:52:00,62.0,60.0,30.23,NE,38,0.0,0.0,94,0.00,,,0.00,,2013-09-16 08:52:00,
2013-09-16 05:12:00,63.0,62.0,30.23,NE,38,0.0,0.0,95,0.00,,,0.00,,2013-09-16 09:12:00,
2013-09-16 05:22:00,63.0,62.0,30.23,NE,38,0.0,0.0,95,0.00,,,0.00,,2013-09-16 09:22:00,
2013-09-16 05:53:00,63.0,62.0,30.23,NE,38,0.0,0.0,95,0.00,,,0.00,,2013-09-16 09:53:00,
2013-09-16 06:23:00,62.0,60.0,30.23,NE,38,0.0,0.0,94,0.00,,,0.00,,2013-09-16 10:23:00,
2013-09-16 06:53:00,62.0,61.0,30.23,NE,38,0.0,0.0,95,0.00,,,0.00,,2013-09-16 10:53:00,
2013-09-16 07:22:00,61.0,59.0,30.24,NE,38,0.0,0.0,94,0.00,,,0.00,,2013-09-16 11:22:00,
2013-09-16 10:11:00,68.0,66.0,30.25,NE,38,0.0,0.0,93,0.00,,,0.00,,2013-09-16 14:11:00,
2013-09-16 10:22:00,71.0,68.0,30.25,NE,38,0.0,1.0,89,0.00,,,0.00,,2013-09-16 14:22:00,
2013-09-16 10:52:00,74.0,68.0,30.25,NE,38,0.0,1.0,83,0.00,,,0.00,,2013-09-16 14:52:00,
2013-09-16 11:12:00,74.0,68.0,30.25,NE,53,0.0,1.0,81,0.00,,,0.00,,2013-09-16 15:12:00,
2013-09-16 11:22:00,76.0,69.0,30.25,ESE,117,0.0,0.0,79,0.00,,,0.00,,2013-09-16 15:22:00,
2013-09-16 11:53:00,77.0,69.0,30.24,ENE,69,0.0,3.0,76,0.00,,,0.00,,2013-09-16 15:53:00,
2013-09-16 12:23:00,78.0,67.0,30.24,SW,217,2.0,3.0,69,0.00,,,0.00,,2013-09-16 16:23:00,
2013-09-16 12:52:00,80.0,67.0,30.23,NE,53,2.0,7.0,65,0.00,,,0.00,,2013-09-16 16:52:00,
2013-09-16 13:12:00,80.0,66.0,30.23,SW,236,1.0,4.0,62,0.00,,,0.00,,2013-09-16 17:12:00,
2013-09-16 13:23:00,81.0,64.0,30.23,ENE,60,1.0,3.0,57,0.00,,,0.00,,2013-09-16 17:23:00,
2013-09-16 13:53:00,82.0,63.0,30.22,ENE,65,0.0,7.0,53,0.00,,,0.00,,2013-09-16 17:53:00,
2013-09-16 14:12:00,83.0,65.0,30.22,NE,46,1.0,5.0,55,0.00,,,0.00,,2013-09-16 18:12:00,
2013-09-16 14:22:00,82.0,64.0,30.21,NE,52,0.0,4.0,55,0.00,,,0.00,,2013-09-16 18:22:00,
2013-09-16 14:52:00,83.0,66.0,30.20,ENE,61,1.0,4.0,56,0.00,,,0.00,,2013-09-16 18:52:00,
2013-09-16 15:11:00,84.0,67.0,30.20,NNE,13,0.0,3.0,56,0.00,,,0.00,,2013-09-16 19:11:00,
2013-09-16 15:22:00,84.0,66.0,30.19,WSW,242,0.0,3.0,54,0.00,,,0.00,,2013-09-16 19:22:00,
2013-09-16 15:53:00,84.0,66.0,30.18,SSW,212,0.0,4.0,55,0.00,,,0.00,,2013-09-16 19:53:00,
2013-09-16 16:11:00,84.0,66.0,30.17,ENE,63,2.0,5.0,55,0.00,,,0.00,,2013-09-16 20:11:00,
2013-09-16 16:22:00,84.0,65.0,30.17,WSW,244,0.0,2.0,53,0.00,,,0.00,,2013-09-16 20:22:00,
2013-09-16 16:52:00,83.0,65.0,30.17,SW,226,1.0,3.0,55,0.00,,,0.00,,2013-09-16 20:52:00,
2013-09-16 17:11:00,83.0,64.0,30.17,SW,227,0.0,3.0,52,0.00,,,0.00,,2013-09-16 21:11:00,
2013-09-16 17:22:00,83.0,66.0,30.17,South,190,0.0,4.0,56,0.00,,,0.00,,2013-09-16 21:22:00,
2013-09-16 17:56:00,82.0,66.0,30.17,SSE,156,0.0,0.0,59,0.00,,,0.00,,2013-09-16 21:56:00,
2013-09-16 18:13:00,82.0,67.0,30.18,South,178,0.0,0.0,60,0.00,,,0.00,,2013-09-16 22:13:00,
2013-09-16 18:24:00,81.0,68.0,30.18,South,183,0.0,0.0,64,0.00,,,0.00,,2013-09-16 22:24:00,
2013-09-16 18:54:00,80.0,67.0,30.18,SSW,196,0.0,0.0,65,0.00,,,0.00,,2013-09-16 22:54:00,
2013-09-16 19:22:00,79.0,68.0,30.19,East,89,0.0,0.0,69,0.00,,,0.00,,2013-09-16 23:22:00,
2013-09-16 19:53:00,76.0,66.0,30.20,WSW,246,0.0,0.0,72,0.00,,,0.00,,2013-09-16 23:53:00,
2013-09-16 20:22:00,75.0,67.0,30.22,WSW,246,0.0,0.0,75,0.00,,,0.00,,2013-09-17 00:22:00,
2013-09-16 20:42:00,74.0,66.0,30.22,WSW,245,0.0,0.0,76,0.00,,,0.00,,2013-09-17 00:42:00,
2013-09-16 20:52:00,73.0,65.0,30.22,WSW,246,0.0,0.0,77,0.00,,,0.00,,2013-09-17 00:52:00,
2013-09-16 21:11:00,73.0,65.0,30.23,WSW,245,0.0,1.0,76,0.00,,,0.00,,2013-09-17 01:11:00,
2013-09-16 21:22:00,73.0,65.0,30.24,WSW,246,0.0,1.0,75,0.00,,,0.00,,2013-09-17 01:22:00,
2013-09-16 21:42:00,73.0,64.0,30.25,South,184,0.0,2.0,73,0.00,,,0.00,,2013-09-17 01:42:00,
2013-09-16 21:52:00,74.0,64.0,30.26,WSW,242,0.0,5.0,70,0.00,,,0.00,,2013-09-17 01:52:00,
2013-09-16 22:12:00,74.0,64.0,30.26,SW,225,1.0,10.0,70,0.00,,,0.00,,2013-09-17 02:12:00,
2013-09-16 22:22:00,74.0,64.0,30.27,SW,221,0.0,1.0,70,0.00,,,0.00,,2013-09-17 02:22:00,
2013-09-16 22:42:00,74.0,63.0,30.27,West,261,0.0,4.0,69,0.00,,,0.00,,2013-09-17 02:42:00,
2013-09-16 22:53:00,74.0,64.0,30.27,WSW,239,1.0,4.0,70,0.00,,,0.00,,2013-09-17 02:53:00,
2013-09-16 23:12:00,73.0,63.0,30.27,SW,230,1.0,4.0,71,0.00,,,0.00,,2013-09-17 03:12:00,
2013-09-16 23:23:00,73.0,64.0,30.28,West,269,0.0,4.0,73,0.00,,,0.00,,2013-09-17 03:23:00,
2013-09-16 23:54:00,72.0,63.0,30.28,WSW,255,0.0,7.0,73,0.00,,,0.00,,2013-09-17 03:54:00,